sensor_id;sensor_type;location;lat;lon;timestamp;temperature;humidity
38684;DHT22;24910;53.248;-6.134;2022-07-23T00:01:28;18.60;74.90
38684;DHT22;24910;53.248;-6.134;2022-07-23T00:03:58;18.50;74.90
38684;DHT22;24910;53.248;-6.134;2022-07-23T00:06:27;18.60;75.00
38684;DHT22;24910;53.248;-6.134;2022-07-23T00:08:56;18.60;74.90
38684;DHT22;24910;53.248;-6.134;2022-07-23T00:11:26;18.50;74.80
38684;DHT22;24910;53.248;-6.134;2022-07-23T00:13:56;18.60;74.60
38684;DHT22;24910;53.248;-6.134;2022-07-23T00:16:26;18.60;74.30
38684;DHT22;24910;53.248;-6.134;2022-07-23T00:18:55;18.60;73.80
38684;DHT22;24910;53.248;-6.134;2022-07-23T00:21:25;18.60;73.80
38684;DHT22;24910;53.248;-6.134;2022-07-23T00:23:54;18.60;73.50
38684;DHT22;24910;53.248;-6.134;2022-07-23T00:26:23;18.60;73.50
38684;DHT22;24910;53.248;-6.134;2022-07-23T00:28:52;18.60;73.30
38684;DHT22;24910;53.248;-6.134;2022-07-23T00:31:23;18.60;73.30
38684;DHT22;24910;53.248;-6.134;2022-07-23T00:33:52;18.60;73.30
38684;DHT22;24910;53.248;-6.134;2022-07-23T00:36:24;18.70;73.30
38684;DHT22;24910;53.248;-6.134;2022-07-23T00:38:53;18.70;73.30
38684;DHT22;24910;53.248;-6.134;2022-07-23T00:41:23;18.70;73.30
38684;DHT22;24910;53.248;-6.134;2022-07-23T00:43:52;18.70;74.10
38684;DHT22;24910;53.248;-6.134;2022-07-23T00:46:23;18.70;73.10
38684;DHT22;24910;53.248;-6.134;2022-07-23T00:48:52;18.70;73.00
38684;DHT22;24910;53.248;-6.134;2022-07-23T00:51:21;18.70;72.90
38684;DHT22;24910;53.248;-6.134;2022-07-23T00:53:51;18.70;72.70
38684;DHT22;24910;53.248;-6.134;2022-07-23T00:56:20;18.70;72.70
38684;DHT22;24910;53.248;-6.134;2022-07-23T00:58:49;18.70;73.00
38684;DHT22;24910;53.248;-6.134;2022-07-23T01:01:18;18.70;72.70
38684;DHT22;24910;53.248;-6.134;2022-07-23T01:03:49;18.70;72.90
38684;DHT22;24910;53.248;-6.134;2022-07-23T01:06:18;18.70;73.30
38684;DHT22;24910;53.248;-6.134;2022-07-23T01:08:48;18.70;73.40
38684;DHT22;24910;53.248;-6.134;2022-07-23T01:11:18;18.70;73.70
38684;DHT22;24910;53.248;-6.134;2022-07-23T01:13:48;18.70;73.90
38684;DHT22;24910;53.248;-6.134;2022-07-23T01:16:17;18.60;73.80
38684;DHT22;24910;53.248;-6.134;2022-07-23T01:18:48;18.60;74.20
38684;DHT22;24910;53.248;-6.134;2022-07-23T01:21:18;18.60;74.40
38684;DHT22;24910;53.248;-6.134;2022-07-23T01:23:49;18.60;74.70
38684;DHT22;24910;53.248;-6.134;2022-07-23T01:26:18;18.60;74.90
38684;DHT22;24910;53.248;-6.134;2022-07-23T01:28:47;18.60;75.00
38684;DHT22;24910;53.248;-6.134;2022-07-23T01:31:17;18.70;75.20
38684;DHT22;24910;53.248;-6.134;2022-07-23T01:33:46;18.60;75.40
38684;DHT22;24910;53.248;-6.134;2022-07-23T01:36:16;18.60;75.00
38684;DHT22;24910;53.248;-6.134;2022-07-23T01:38:45;18.60;74.90
38684;DHT22;24910;53.248;-6.134;2022-07-23T01:41:16;18.60;74.70
38684;DHT22;24910;53.248;-6.134;2022-07-23T01:43:45;18.60;74.50
38684;DHT22;24910;53.248;-6.134;2022-07-23T01:46:15;18.60;74.40
38684;DHT22;24910;53.248;-6.134;2022-07-23T01:48:48;18.60;74.30
38684;DHT22;24910;53.248;-6.134;2022-07-23T01:51:35;18.60;73.80
38684;DHT22;24910;53.248;-6.134;2022-07-23T01:54:09;18.50;73.70
38684;DHT22;24910;53.248;-6.134;2022-07-23T01:56:40;18.60;73.80
38684;DHT22;24910;53.248;-6.134;2022-07-23T01:59:09;18.50;73.80
38684;DHT22;24910;53.248;-6.134;2022-07-23T02:01:38;18.60;73.80
38684;DHT22;24910;53.248;-6.134;2022-07-23T02:04:07;18.60;73.80
38684;DHT22;24910;53.248;-6.134;2022-07-23T02:06:36;18.60;73.60
38684;DHT22;24910;53.248;-6.134;2022-07-23T02:09:05;18.60;73.50
38684;DHT22;24910;53.248;-6.134;2022-07-23T02:11:35;18.50;73.50
38684;DHT22;24910;53.248;-6.134;2022-07-23T02:14:05;18.60;73.50
38684;DHT22;24910;53.248;-6.134;2022-07-23T02:16:34;18.50;73.50
38684;DHT22;24910;53.248;-6.134;2022-07-23T02:19:04;18.50;73.70
38684;DHT22;24910;53.248;-6.134;2022-07-23T02:21:33;18.50;73.70
38684;DHT22;24910;53.248;-6.134;2022-07-23T02:24:04;18.50;74.10
38684;DHT22;24910;53.248;-6.134;2022-07-23T02:26:34;18.50;74.60
38684;DHT22;24910;53.248;-6.134;2022-07-23T02:29:06;18.40;75.00
38684;DHT22;24910;53.248;-6.134;2022-07-23T02:31:36;18.40;75.40
38684;DHT22;24910;53.248;-6.134;2022-07-23T02:34:07;18.40;75.70
38684;DHT22;24910;53.248;-6.134;2022-07-23T02:36:39;18.40;76.10
38684;DHT22;24910;53.248;-6.134;2022-07-23T02:39:09;18.40;76.60
38684;DHT22;24910;53.248;-6.134;2022-07-23T02:41:39;18.40;76.90
38684;DHT22;24910;53.248;-6.134;2022-07-23T02:44:10;18.40;77.20
38684;DHT22;24910;53.248;-6.134;2022-07-23T02:46:40;18.40;77.50
38684;DHT22;24910;53.248;-6.134;2022-07-23T02:49:09;18.40;77.70
38684;DHT22;24910;53.248;-6.134;2022-07-23T02:51:38;18.40;78.00
38684;DHT22;24910;53.248;-6.134;2022-07-23T02:54:08;18.40;78.20
38684;DHT22;24910;53.248;-6.134;2022-07-23T02:56:37;18.40;78.50
38684;DHT22;24910;53.248;-6.134;2022-07-23T02:59:06;18.40;78.70
38684;DHT22;24910;53.248;-6.134;2022-07-23T03:01:37;18.40;78.90
38684;DHT22;24910;53.248;-6.134;2022-07-23T03:04:07;18.40;79.20
38684;DHT22;24910;53.248;-6.134;2022-07-23T03:06:37;18.40;79.30
38684;DHT22;24910;53.248;-6.134;2022-07-23T03:09:06;18.40;79.50
38684;DHT22;24910;53.248;-6.134;2022-07-23T03:11:35;18.40;79.60
38684;DHT22;24910;53.248;-6.134;2022-07-23T03:14:04;18.40;79.60
38684;DHT22;24910;53.248;-6.134;2022-07-23T03:16:36;18.40;79.80
38684;DHT22;24910;53.248;-6.134;2022-07-23T03:19:06;18.50;79.90
38684;DHT22;24910;53.248;-6.134;2022-07-23T03:21:35;18.50;79.90
38684;DHT22;24910;53.248;-6.134;2022-07-23T03:24:08;18.50;80.00
38684;DHT22;24910;53.248;-6.134;2022-07-23T03:26:38;18.50;80.20
38684;DHT22;24910;53.248;-6.134;2022-07-23T03:29:07;18.50;80.30
38684;DHT22;24910;53.248;-6.134;2022-07-23T03:31:38;18.50;80.50
38684;DHT22;24910;53.248;-6.134;2022-07-23T03:34:08;18.50;80.70
38684;DHT22;24910;53.248;-6.134;2022-07-23T03:36:37;18.50;80.90
38684;DHT22;24910;53.248;-6.134;2022-07-23T03:39:07;18.50;81.00
38684;DHT22;24910;53.248;-6.134;2022-07-23T03:41:41;18.50;81.10
38684;DHT22;24910;53.248;-6.134;2022-07-23T03:44:11;18.50;81.20
38684;DHT22;24910;53.248;-6.134;2022-07-23T03:46:43;18.50;81.30
38684;DHT22;24910;53.248;-6.134;2022-07-23T03:49:12;18.50;81.40
38684;DHT22;24910;53.248;-6.134;2022-07-23T03:51:41;18.60;81.10
38684;DHT22;24910;53.248;-6.134;2022-07-23T03:54:10;18.50;81.30
38684;DHT22;24910;53.248;-6.134;2022-07-23T03:56:39;18.50;81.70
38684;DHT22;24910;53.248;-6.134;2022-07-23T03:59:10;18.50;81.90
38684;DHT22;24910;53.248;-6.134;2022-07-23T04:01:39;18.50;82.20
38684;DHT22;24910;53.248;-6.134;2022-07-23T04:04:10;18.50;82.50
38684;DHT22;24910;53.248;-6.134;2022-07-23T04:06:41;18.50;82.80
38684;DHT22;24910;53.248;-6.134;2022-07-23T04:09:10;18.50;82.90
38684;DHT22;24910;53.248;-6.134;2022-07-23T04:11:39;18.50;83.20
38684;DHT22;24910;53.248;-6.134;2022-07-23T04:14:08;18.50;83.40
38684;DHT22;24910;53.248;-6.134;2022-07-23T04:16:38;18.40;83.70
38684;DHT22;24910;53.248;-6.134;2022-07-23T04:19:07;18.50;84.00
38684;DHT22;24910;53.248;-6.134;2022-07-23T04:21:48;18.40;84.20
38684;DHT22;24910;53.248;-6.134;2022-07-23T04:24:18;18.40;84.50
38684;DHT22;24910;53.248;-6.134;2022-07-23T04:26:47;18.40;84.60
38684;DHT22;24910;53.248;-6.134;2022-07-23T04:29:16;18.40;84.80
38684;DHT22;24910;53.248;-6.134;2022-07-23T04:31:45;18.40;85.10
38684;DHT22;24910;53.248;-6.134;2022-07-23T04:34:15;18.40;85.20
38684;DHT22;24910;53.248;-6.134;2022-07-23T04:36:44;18.40;85.40
38684;DHT22;24910;53.248;-6.134;2022-07-23T04:39:15;18.40;85.60
38684;DHT22;24910;53.248;-6.134;2022-07-23T04:41:44;18.40;85.70
38684;DHT22;24910;53.248;-6.134;2022-07-23T04:44:14;18.40;85.80
38684;DHT22;24910;53.248;-6.134;2022-07-23T04:46:43;18.40;85.90
38684;DHT22;24910;53.248;-6.134;2022-07-23T04:49:14;18.40;86.10
38684;DHT22;24910;53.248;-6.134;2022-07-23T04:51:45;18.50;86.20
38684;DHT22;24910;53.248;-6.134;2022-07-23T04:54:16;18.50;86.10
38684;DHT22;24910;53.248;-6.134;2022-07-23T04:56:46;18.50;85.70
38684;DHT22;24910;53.248;-6.134;2022-07-23T04:59:15;18.50;85.80
38684;DHT22;24910;53.248;-6.134;2022-07-23T05:01:45;18.50;86.00
38684;DHT22;24910;53.248;-6.134;2022-07-23T05:04:14;18.50;86.10
38684;DHT22;24910;53.248;-6.134;2022-07-23T05:06:44;18.50;86.30
38684;DHT22;24910;53.248;-6.134;2022-07-23T05:09:13;18.50;86.50
38684;DHT22;24910;53.248;-6.134;2022-07-23T05:11:45;18.50;86.60
38684;DHT22;24910;53.248;-6.134;2022-07-23T05:14:14;18.50;86.80
38684;DHT22;24910;53.248;-6.134;2022-07-23T05:16:44;18.50;86.80
38684;DHT22;24910;53.248;-6.134;2022-07-23T05:19:19;18.50;86.90
38684;DHT22;24910;53.248;-6.134;2022-07-23T05:21:52;18.50;87.00
38684;DHT22;24910;53.248;-6.134;2022-07-23T05:24:21;18.50;87.10
38684;DHT22;24910;53.248;-6.134;2022-07-23T05:26:53;18.50;87.20
38684;DHT22;24910;53.248;-6.134;2022-07-23T05:29:26;18.50;87.30
38684;DHT22;24910;53.248;-6.134;2022-07-23T05:31:55;18.50;87.30
38684;DHT22;24910;53.248;-6.134;2022-07-23T05:34:24;18.50;87.50
38684;DHT22;24910;53.248;-6.134;2022-07-23T05:36:53;18.50;87.60
38684;DHT22;24910;53.248;-6.134;2022-07-23T05:39:22;18.50;87.60
38684;DHT22;24910;53.248;-6.134;2022-07-23T05:41:53;18.50;87.70
38684;DHT22;24910;53.248;-6.134;2022-07-23T05:44:23;18.50;87.90
38684;DHT22;24910;53.248;-6.134;2022-07-23T05:46:52;18.50;88.10
38684;DHT22;24910;53.248;-6.134;2022-07-23T05:49:24;18.50;87.90
38684;DHT22;24910;53.248;-6.134;2022-07-23T05:52:24;18.40;89.10
38684;DHT22;24910;53.248;-6.134;2022-07-23T05:55:16;18.30;88.70
38684;DHT22;24910;53.248;-6.134;2022-07-23T05:57:47;18.30;89.10
38684;DHT22;24910;53.248;-6.134;2022-07-23T06:00:16;18.30;90.10
38684;DHT22;24910;53.248;-6.134;2022-07-23T06:02:50;18.30;89.50
38684;DHT22;24910;53.248;-6.134;2022-07-23T06:05:23;18.30;89.50
38684;DHT22;24910;53.248;-6.134;2022-07-23T06:07:55;18.30;89.60
38684;DHT22;24910;53.248;-6.134;2022-07-23T06:10:25;18.30;89.60
38684;DHT22;24910;53.248;-6.134;2022-07-23T06:12:57;18.40;89.70
38684;DHT22;24910;53.248;-6.134;2022-07-23T06:15:29;18.40;89.70
38684;DHT22;24910;53.248;-6.134;2022-07-23T06:17:59;18.40;89.60
38684;DHT22;24910;53.248;-6.134;2022-07-23T06:20:28;18.40;89.70
38684;DHT22;24910;53.248;-6.134;2022-07-23T06:23:00;18.40;89.80
38684;DHT22;24910;53.248;-6.134;2022-07-23T06:25:29;18.50;89.80
38684;DHT22;24910;53.248;-6.134;2022-07-23T06:27:59;18.40;89.80
38684;DHT22;24910;53.248;-6.134;2022-07-23T06:30:28;18.40;89.90
38684;DHT22;24910;53.248;-6.134;2022-07-23T06:32:58;18.50;89.90
38684;DHT22;24910;53.248;-6.134;2022-07-23T06:35:27;18.40;89.90
38684;DHT22;24910;53.248;-6.134;2022-07-23T06:37:56;18.40;89.90
38684;DHT22;24910;53.248;-6.134;2022-07-23T06:40:25;18.40;89.90
38684;DHT22;24910;53.248;-6.134;2022-07-23T06:42:54;18.50;89.90
38684;DHT22;24910;53.248;-6.134;2022-07-23T06:45:25;18.50;89.90
38684;DHT22;24910;53.248;-6.134;2022-07-23T06:47:54;18.50;89.90
38684;DHT22;24910;53.248;-6.134;2022-07-23T06:50:23;18.60;89.90
38684;DHT22;24910;53.248;-6.134;2022-07-23T06:52:52;18.60;89.90
38684;DHT22;24910;53.248;-6.134;2022-07-23T06:55:21;18.60;89.90
38684;DHT22;24910;53.248;-6.134;2022-07-23T06:57:50;18.60;90.00
38684;DHT22;24910;53.248;-6.134;2022-07-23T07:00:20;18.60;90.00
38684;DHT22;24910;53.248;-6.134;2022-07-23T07:02:50;18.60;90.00
38684;DHT22;24910;53.248;-6.134;2022-07-23T07:05:22;18.60;90.00
38684;DHT22;24910;53.248;-6.134;2022-07-23T07:07:53;18.60;90.10
38684;DHT22;24910;53.248;-6.134;2022-07-23T07:10:22;18.50;90.10
38684;DHT22;24910;53.248;-6.134;2022-07-23T07:12:51;18.50;90.20
38684;DHT22;24910;53.248;-6.134;2022-07-23T07:15:21;18.60;90.30
38684;DHT22;24910;53.248;-6.134;2022-07-23T07:17:51;18.60;90.30
38684;DHT22;24910;53.248;-6.134;2022-07-23T07:20:20;18.60;90.40
38684;DHT22;24910;53.248;-6.134;2022-07-23T07:22:49;18.60;90.40
38684;DHT22;24910;53.248;-6.134;2022-07-23T07:25:18;18.70;90.40
38684;DHT22;24910;53.248;-6.134;2022-07-23T07:27:47;18.70;90.40
38684;DHT22;24910;53.248;-6.134;2022-07-23T07:30:17;18.80;90.40
38684;DHT22;24910;53.248;-6.134;2022-07-23T07:32:46;18.80;90.40
38684;DHT22;24910;53.248;-6.134;2022-07-23T07:35:25;18.90;90.50
38684;DHT22;24910;53.248;-6.134;2022-07-23T07:37:54;18.90;90.50
38684;DHT22;24910;53.248;-6.134;2022-07-23T07:40:24;19.00;90.50
38684;DHT22;24910;53.248;-6.134;2022-07-23T07:43:00;19.00;90.60
38684;DHT22;24910;53.248;-6.134;2022-07-23T07:45:31;19.00;90.60
38684;DHT22;24910;53.248;-6.134;2022-07-23T07:48:00;19.10;90.60
38684;DHT22;24910;53.248;-6.134;2022-07-23T07:50:31;19.10;90.60
38684;DHT22;24910;53.248;-6.134;2022-07-23T07:53:01;19.10;90.60
38684;DHT22;24910;53.248;-6.134;2022-07-23T07:55:30;19.10;90.60
38684;DHT22;24910;53.248;-6.134;2022-07-23T07:57:59;19.20;90.70
38684;DHT22;24910;53.248;-6.134;2022-07-23T08:00:29;19.20;90.70
38684;DHT22;24910;53.248;-6.134;2022-07-23T08:03:00;19.20;90.60
38684;DHT22;24910;53.248;-6.134;2022-07-23T08:05:31;19.20;90.60
38684;DHT22;24910;53.248;-6.134;2022-07-23T08:08:01;19.20;90.50
38684;DHT22;24910;53.248;-6.134;2022-07-23T08:10:30;19.20;90.50
38684;DHT22;24910;53.248;-6.134;2022-07-23T08:12:59;19.20;90.50
38684;DHT22;24910;53.248;-6.134;2022-07-23T08:15:29;19.30;90.50
38684;DHT22;24910;53.248;-6.134;2022-07-23T08:17:59;19.30;90.50
38684;DHT22;24910;53.248;-6.134;2022-07-23T08:20:29;19.30;90.50
38684;DHT22;24910;53.248;-6.134;2022-07-23T08:23:02;19.40;90.50
38684;DHT22;24910;53.248;-6.134;2022-07-23T08:25:33;19.50;90.40
38684;DHT22;24910;53.248;-6.134;2022-07-23T08:28:04;19.50;90.40
38684;DHT22;24910;53.248;-6.134;2022-07-23T08:30:35;19.60;90.40
38684;DHT22;24910;53.248;-6.134;2022-07-23T08:33:06;19.60;90.30
38684;DHT22;24910;53.248;-6.134;2022-07-23T08:35:37;19.70;90.30
38684;DHT22;24910;53.248;-6.134;2022-07-23T08:38:09;19.70;90.20
38684;DHT22;24910;53.248;-6.134;2022-07-23T08:40:43;19.70;90.20
38684;DHT22;24910;53.248;-6.134;2022-07-23T08:43:14;19.70;90.20
38684;DHT22;24910;53.248;-6.134;2022-07-23T08:45:46;19.60;90.20
38684;DHT22;24910;53.248;-6.134;2022-07-23T08:48:17;19.70;90.00
38684;DHT22;24910;53.248;-6.134;2022-07-23T08:50:50;19.70;90.00
38684;DHT22;24910;53.248;-6.134;2022-07-23T08:53:21;19.70;90.10
38684;DHT22;24910;53.248;-6.134;2022-07-23T08:55:54;19.80;90.20
38684;DHT22;24910;53.248;-6.134;2022-07-23T08:58:25;19.80;90.20
38684;DHT22;24910;53.248;-6.134;2022-07-23T09:00:56;20.00;90.20
38684;DHT22;24910;53.248;-6.134;2022-07-23T09:03:27;20.10;90.20
38684;DHT22;24910;53.248;-6.134;2022-07-23T09:05:58;20.20;90.10
38684;DHT22;24910;53.248;-6.134;2022-07-23T09:08:37;20.20;90.00
38684;DHT22;24910;53.248;-6.134;2022-07-23T09:11:07;20.30;89.90
38684;DHT22;24910;53.248;-6.134;2022-07-23T09:13:39;20.30;89.60
38684;DHT22;24910;53.248;-6.134;2022-07-23T09:16:12;20.30;89.40
38684;DHT22;24910;53.248;-6.134;2022-07-23T09:18:44;20.40;89.40
38684;DHT22;24910;53.248;-6.134;2022-07-23T09:21:17;20.40;89.30
38684;DHT22;24910;53.248;-6.134;2022-07-23T09:23:52;20.40;89.10
38684;DHT22;24910;53.248;-6.134;2022-07-23T09:26:40;20.40;89.00
38684;DHT22;24910;53.248;-6.134;2022-07-23T09:29:13;20.40;89.00
38684;DHT22;24910;53.248;-6.134;2022-07-23T09:31:53;20.40;88.80
38684;DHT22;24910;53.248;-6.134;2022-07-23T09:34:23;20.30;88.70
38684;DHT22;24910;53.248;-6.134;2022-07-23T09:36:55;20.30;88.70
38684;DHT22;24910;53.248;-6.134;2022-07-23T09:39:31;20.30;88.70
38684;DHT22;24910;53.248;-6.134;2022-07-23T09:42:15;20.30;88.50
38684;DHT22;24910;53.248;-6.134;2022-07-23T09:44:47;20.30;88.60
38684;DHT22;24910;53.248;-6.134;2022-07-23T09:47:16;20.40;88.50
38684;DHT22;24910;53.248;-6.134;2022-07-23T09:49:58;20.50;88.60
38684;DHT22;24910;53.248;-6.134;2022-07-23T09:52:29;20.60;88.20
38684;DHT22;24910;53.248;-6.134;2022-07-23T09:55:05;20.60;88.00
38684;DHT22;24910;53.248;-6.134;2022-07-23T09:57:34;20.70;87.90
38684;DHT22;24910;53.248;-6.134;2022-07-23T10:00:05;20.80;87.80
38684;DHT22;24910;53.248;-6.134;2022-07-23T10:02:37;20.90;87.60
38684;DHT22;24910;53.248;-6.134;2022-07-23T10:05:45;21.00;87.30
38684;DHT22;24910;53.248;-6.134;2022-07-23T10:08:22;21.10;87.10
38684;DHT22;24910;53.248;-6.134;2022-07-23T10:11:16;21.30;86.80
38684;DHT22;24910;53.248;-6.134;2022-07-23T10:14:03;21.40;86.30
38684;DHT22;24910;53.248;-6.134;2022-07-23T10:16:45;21.50;86.60
38684;DHT22;24910;53.248;-6.134;2022-07-23T10:19:16;21.50;85.40
38684;DHT22;24910;53.248;-6.134;2022-07-23T10:21:49;21.60;85.10
38684;DHT22;24910;53.248;-6.134;2022-07-23T10:24:28;21.60;84.80
38684;DHT22;24910;53.248;-6.134;2022-07-23T10:27:07;21.50;84.40
38684;DHT22;24910;53.248;-6.134;2022-07-23T10:29:47;21.40;84.20
38684;DHT22;24910;53.248;-6.134;2022-07-23T10:32:25;21.40;84.30
38684;DHT22;24910;53.248;-6.134;2022-07-23T10:35:07;21.30;84.30
38684;DHT22;24910;53.248;-6.134;2022-07-23T10:37:40;21.40;84.30
38684;DHT22;24910;53.248;-6.134;2022-07-23T10:40:12;21.40;84.30
38684;DHT22;24910;53.248;-6.134;2022-07-23T10:42:44;21.40;84.10
38684;DHT22;24910;53.248;-6.134;2022-07-23T10:45:25;21.40;84.00
38684;DHT22;24910;53.248;-6.134;2022-07-23T10:47:55;21.40;83.90
38684;DHT22;24910;53.248;-6.134;2022-07-23T10:50:26;21.30;83.90
38684;DHT22;24910;53.248;-6.134;2022-07-23T10:53:13;21.20;83.90
38684;DHT22;24910;53.248;-6.134;2022-07-23T10:55:46;21.20;83.90
38684;DHT22;24910;53.248;-6.134;2022-07-23T11:01:32;21.10;84.20
38684;DHT22;24910;53.248;-6.134;2022-07-23T11:04:03;21.10;84.30
38684;DHT22;24910;53.248;-6.134;2022-07-23T11:07:06;21.10;84.30
38684;DHT22;24910;53.248;-6.134;2022-07-23T11:09:42;21.10;84.60
38684;DHT22;24910;53.248;-6.134;2022-07-23T11:12:33;21.20;84.70
38684;DHT22;24910;53.248;-6.134;2022-07-23T11:15:07;21.30;85.00
38684;DHT22;24910;53.248;-6.134;2022-07-23T11:17:39;21.40;85.00
38684;DHT22;24910;53.248;-6.134;2022-07-23T11:20:17;21.50;85.00
38684;DHT22;24910;53.248;-6.134;2022-07-23T11:22:49;21.80;85.10
38684;DHT22;24910;53.248;-6.134;2022-07-23T11:25:31;22.00;84.60
38684;DHT22;24910;53.248;-6.134;2022-07-23T11:28:15;22.30;84.20
38684;DHT22;24910;53.248;-6.134;2022-07-23T11:30:45;22.50;83.20
38684;DHT22;24910;53.248;-6.134;2022-07-23T11:33:21;22.70;82.70
38684;DHT22;24910;53.248;-6.134;2022-07-23T11:36:00;22.90;82.30
38684;DHT22;24910;53.248;-6.134;2022-07-23T11:38:31;23.10;81.70
38684;DHT22;24910;53.248;-6.134;2022-07-23T11:41:01;23.20;81.20
38684;DHT22;24910;53.248;-6.134;2022-07-23T11:43:30;23.30;80.90
38684;DHT22;24910;53.248;-6.134;2022-07-23T11:46:01;23.40;80.10
38684;DHT22;24910;53.248;-6.134;2022-07-23T11:48:30;23.50;79.70
38684;DHT22;24910;53.248;-6.134;2022-07-23T11:51:07;23.60;79.50
38684;DHT22;24910;53.248;-6.134;2022-07-23T11:53:36;23.70;79.00
38684;DHT22;24910;53.248;-6.134;2022-07-23T11:56:06;23.70;78.50
38684;DHT22;24910;53.248;-6.134;2022-07-23T11:58:37;23.60;78.20
38684;DHT22;24910;53.248;-6.134;2022-07-23T12:01:08;23.60;78.20
38684;DHT22;24910;53.248;-6.134;2022-07-23T12:03:49;23.60;77.80
38684;DHT22;24910;53.248;-6.134;2022-07-23T12:06:19;23.60;77.80
38684;DHT22;24910;53.248;-6.134;2022-07-23T12:08:49;23.60;78.00
38684;DHT22;24910;53.248;-6.134;2022-07-23T12:11:18;23.70;77.90
38684;DHT22;24910;53.248;-6.134;2022-07-23T12:13:56;23.80;77.70
38684;DHT22;24910;53.248;-6.134;2022-07-23T12:16:27;23.80;77.50
38684;DHT22;24910;53.248;-6.134;2022-07-23T12:18:56;23.90;77.30
38684;DHT22;24910;53.248;-6.134;2022-07-23T12:21:25;24.00;77.20
38684;DHT22;24910;53.248;-6.134;2022-07-23T12:24:06;24.20;77.00
38684;DHT22;24910;53.248;-6.134;2022-07-23T12:26:35;24.30;76.50
38684;DHT22;24910;53.248;-6.134;2022-07-23T12:29:04;24.50;76.10
38684;DHT22;24910;53.248;-6.134;2022-07-23T12:31:35;24.60;75.70
38684;DHT22;24910;53.248;-6.134;2022-07-23T12:34:14;24.60;75.40
38684;DHT22;24910;53.248;-6.134;2022-07-23T12:36:43;24.70;74.70
38684;DHT22;24910;53.248;-6.134;2022-07-23T12:39:30;24.70;74.40
38684;DHT22;24910;53.248;-6.134;2022-07-23T12:41:59;24.70;74.00
38684;DHT22;24910;53.248;-6.134;2022-07-23T12:44:28;24.70;74.10
38684;DHT22;24910;53.248;-6.134;2022-07-23T12:47:06;24.70;74.20
38684;DHT22;24910;53.248;-6.134;2022-07-23T12:49:36;24.60;74.00
38684;DHT22;24910;53.248;-6.134;2022-07-23T12:52:15;24.70;74.00
38684;DHT22;24910;53.248;-6.134;2022-07-23T12:54:46;24.70;73.90
38684;DHT22;24910;53.248;-6.134;2022-07-23T12:57:16;24.70;74.10
38684;DHT22;24910;53.248;-6.134;2022-07-23T12:59:46;24.70;74.20
38684;DHT22;24910;53.248;-6.134;2022-07-23T13:02:16;24.70;74.40
38684;DHT22;24910;53.248;-6.134;2022-07-23T13:04:48;24.80;74.20
38684;DHT22;24910;53.248;-6.134;2022-07-23T13:07:17;24.80;74.10
38684;DHT22;24910;53.248;-6.134;2022-07-23T13:09:48;24.90;74.00
38684;DHT22;24910;53.248;-6.134;2022-07-23T13:12:20;24.90;73.70
38684;DHT22;24910;53.248;-6.134;2022-07-23T13:14:49;24.90;73.60
38684;DHT22;24910;53.248;-6.134;2022-07-23T13:17:20;24.90;73.40
38684;DHT22;24910;53.248;-6.134;2022-07-23T13:19:49;24.90;73.50
38684;DHT22;24910;53.248;-6.134;2022-07-23T13:22:18;24.90;73.60
38684;DHT22;24910;53.248;-6.134;2022-07-23T13:24:48;24.90;73.50
38684;DHT22;24910;53.248;-6.134;2022-07-23T13:27:17;24.90;73.40
38684;DHT22;24910;53.248;-6.134;2022-07-23T13:29:47;24.90;73.30
38684;DHT22;24910;53.248;-6.134;2022-07-23T13:32:17;24.90;73.10
38684;DHT22;24910;53.248;-6.134;2022-07-23T13:34:47;24.90;72.90
38684;DHT22;24910;53.248;-6.134;2022-07-23T13:37:18;24.90;72.90
38684;DHT22;24910;53.248;-6.134;2022-07-23T13:39:47;24.80;72.90
38684;DHT22;24910;53.248;-6.134;2022-07-23T13:42:17;24.70;72.90
38684;DHT22;24910;53.248;-6.134;2022-07-23T13:44:49;24.60;73.00
38684;DHT22;24910;53.248;-6.134;2022-07-23T13:47:18;24.60;73.10
38684;DHT22;24910;53.248;-6.134;2022-07-23T13:49:48;24.70;73.50
38684;DHT22;24910;53.248;-6.134;2022-07-23T13:52:18;24.60;73.40
38684;DHT22;24910;53.248;-6.134;2022-07-23T13:54:47;24.50;73.50
38684;DHT22;24910;53.248;-6.134;2022-07-23T13:57:16;24.50;73.80
38684;DHT22;24910;53.248;-6.134;2022-07-23T13:59:45;24.40;74.00
38684;DHT22;24910;53.248;-6.134;2022-07-23T14:02:16;24.30;74.20
38684;DHT22;24910;53.248;-6.134;2022-07-23T14:04:53;24.30;74.50
38684;DHT22;24910;53.248;-6.134;2022-07-23T14:07:22;24.20;74.80
38684;DHT22;24910;53.248;-6.134;2022-07-23T14:09:52;24.20;74.90
38684;DHT22;24910;53.248;-6.134;2022-07-23T14:12:21;24.20;75.10
38684;DHT22;24910;53.248;-6.134;2022-07-23T14:14:50;24.20;75.30
38684;DHT22;24910;53.248;-6.134;2022-07-23T14:17:20;24.20;75.50
38684;DHT22;24910;53.248;-6.134;2022-07-23T14:19:52;24.20;75.40
38684;DHT22;24910;53.248;-6.134;2022-07-23T14:22:21;24.30;75.50
38684;DHT22;24910;53.248;-6.134;2022-07-23T14:24:51;24.30;75.40
38684;DHT22;24910;53.248;-6.134;2022-07-23T14:27:21;24.20;75.30
38684;DHT22;24910;53.248;-6.134;2022-07-23T14:29:50;24.20;75.30
38684;DHT22;24910;53.248;-6.134;2022-07-23T14:32:19;24.20;75.40
38684;DHT22;24910;53.248;-6.134;2022-07-23T14:34:49;24.30;75.30
38684;DHT22;24910;53.248;-6.134;2022-07-23T14:37:19;24.20;75.10
38684;DHT22;24910;53.248;-6.134;2022-07-23T14:39:48;24.20;75.10
38684;DHT22;24910;53.248;-6.134;2022-07-23T14:42:18;24.20;75.20
38684;DHT22;24910;53.248;-6.134;2022-07-23T14:44:47;24.20;75.20
38684;DHT22;24910;53.248;-6.134;2022-07-23T14:47:17;24.20;75.30
38684;DHT22;24910;53.248;-6.134;2022-07-23T14:49:48;24.10;75.40
38684;DHT22;24910;53.248;-6.134;2022-07-23T14:52:19;24.10;75.50
38684;DHT22;24910;53.248;-6.134;2022-07-23T14:54:48;24.10;75.60
38684;DHT22;24910;53.248;-6.134;2022-07-23T14:57:17;24.20;75.80
38684;DHT22;24910;53.248;-6.134;2022-07-23T14:59:53;24.10;75.70
38684;DHT22;24910;53.248;-6.134;2022-07-23T15:02:23;24.10;75.80
38684;DHT22;24910;53.248;-6.134;2022-07-23T15:04:52;24.10;75.90
38684;DHT22;24910;53.248;-6.134;2022-07-23T15:07:24;24.10;76.00
38684;DHT22;24910;53.248;-6.134;2022-07-23T15:09:54;24.20;75.90
38684;DHT22;24910;53.248;-6.134;2022-07-23T15:12:23;24.20;75.90
38684;DHT22;24910;53.248;-6.134;2022-07-23T15:14:52;24.30;75.90
38684;DHT22;24910;53.248;-6.134;2022-07-23T15:17:23;24.30;75.80
38684;DHT22;24910;53.248;-6.134;2022-07-23T15:19:53;24.20;75.50
38684;DHT22;24910;53.248;-6.134;2022-07-23T15:22:24;24.20;75.60
38684;DHT22;24910;53.248;-6.134;2022-07-23T15:24:53;24.20;75.70
38684;DHT22;24910;53.248;-6.134;2022-07-23T15:27:24;24.20;75.90
38684;DHT22;24910;53.248;-6.134;2022-07-23T15:29:53;24.20;76.00
38684;DHT22;24910;53.248;-6.134;2022-07-23T15:32:22;24.20;75.80
38684;DHT22;24910;53.248;-6.134;2022-07-23T15:34:54;24.10;75.80
38684;DHT22;24910;53.248;-6.134;2022-07-23T15:37:25;24.00;75.90
38684;DHT22;24910;53.248;-6.134;2022-07-23T15:39:54;24.00;76.10
38684;DHT22;24910;53.248;-6.134;2022-07-23T15:42:23;24.00;76.20
38684;DHT22;24910;53.248;-6.134;2022-07-23T15:44:52;23.90;76.30